Gentry, Arkansas
Current Conditions -  °F | °C
As of 2:55 PM on Tuesday 27 Jan 2015 (Local Time) from KSLG Reporting Station
Clear Clear  
Wind Chill: 66°   Ceiling: Unl
Heat Index: 66°   Visibility: 10mi
Dew Point: 28°   Wind: 0mph
Humidity: 24%   Direction: NA
Pressure: 30.13"   Gusts: NA
Location:  36.27°N, 94.48°W
Report Text: KSLG 272055Z AUTO 00000KT 10SM CLR 19/M02 A3013 RMK AO1 57017
Loading
Personal Weather Stations






























Interactive Weather Map New forecast layout! Learn more

10-Day Weather Forecast

Advertisements
Track Severe Weather on mobile